Airfield :
LOGIN :

Register | Disclaimer

   EN    FR    IT 

 










Legend :    VFR   Marginal VFR   IFR   Intensive IFR   Very Intensive IFR
Visi :
Ceiling :
>= 8 km
>= 3000ft
5 to 8 km
1000 to 3000 ft
1500m to 5 km
500 to 1000 ft
800 to 1500m
200 to 500 ft
< 800m
< 200 ft
Symbols :   Thunderstorms  Fog  Heavy snow  Heavy precipitations  Wind > 20 kt
SIGMETs :     Misc.  Thunderstorms  Icing  Turbulence  Mountain Waves  Volcanic Ashes






- Airport Elevation : 268 ft
- IATA code : BFS


EGAA - Belfast Aldergrove

CURRENT METAR :
  • 192350Z 20011KT 9999 BKN009 OVC013 10/09 Q0998

EXPIRED METARs :
  • 192320Z 20012KT 9999 -RA BKN007 OVC011 10/09 Q0998
  • 192250Z 21011KT 9999 OVC009 10/09 Q0999
  • 192220Z 21010KT 9999 OVC009 10/09 Q0999
  • 192150Z 21012KT 9999 OVC010 09/09 Q0999
  • 192120Z 21012KT 9999 SCT007 OVC010 09/09 Q1000

TAF TAF EGAA
Valid from the 20 at 00:00 until the 21 at 00:00 UTC


192259Z 2000/2024 20012KT 9999 SCT010
TEMPO 2000/2009 7000 RA BKN008
PROB30
TEMPO 2000/2004 3000 +RA BKN004
BECMG 2003/2006 26008KT
BECMG 2008/2011 25020G34KT
TEMPO 2011/2022 3000 SHRASN BKN012
PROB30
TEMPO 2012/2019 +SHRASN



MET'MAP, your aeronautical weather chart ! - Copyright ORBIFLY December 2007 - Disclaimer

ORBIFLY MET'MAP TEAM :

Programming & Development : Alexandra Zaïnal
Concept & original design : Baudouin d'Aumeries
Assistance for programming : Marc-Olivier Méhu
Technical & hardware support : Manuel Goepfert

Contact : metmap@orbifly.com




SOURCES & CREDITS :

   NOAA